Terminal Aerodrome Forecast
Issued by NWS

Home | Current Version | Previous Version | Text Only | Print | Product List | Glossary On
Versions: 1 2 3 4 5 6 7 8 9 10 11 12 13 14 15 16
000
FTUS43 KBIS 101700
TAFMOT
TAF
KMOT 101735Z 1018/1118 17012G18KT P6SM SCT100 BKN250
     FM110100 18012KT P6SM VCTS SCT040CB SCT100
     FM110600 30007KT P6SM SCT060=

USA.gov is the U.S. government's official web portal to all federal, state and local government web resources and services.